createdAt,value
2024-05-09T00:00:22.009Z,11.07
2024-05-09T00:05:19.147Z,11.01
2024-05-09T00:10:18.206Z,11.15
2024-05-09T00:15:17.966Z,10.81
2024-05-09T00:20:17.580Z,10.99
2024-05-09T00:25:16.447Z,10.73
2024-05-09T00:30:14.367Z,10.95
2024-05-09T00:35:10.036Z,10.84
2024-05-09T00:40:02.797Z,10.71
2024-05-09T00:44:55.472Z,10.66
2024-05-09T00:49:51.466Z,10.59
2024-05-09T00:54:44.081Z,10.28
2024-05-09T00:59:36.843Z,10.46
2024-05-09T01:04:29.510Z,10.56
2024-05-09T01:09:22.038Z,10.33
2024-05-09T01:14:14.433Z,10.47
2024-05-09T01:19:16.605Z,10.40
2024-05-09T01:24:08.993Z,10.33
2024-05-09T01:29:01.536Z,10.29
2024-05-09T01:33:54.019Z,10.14
2024-05-09T01:38:46.476Z,10.12
2024-05-09T01:43:38.909Z,10.34
2024-05-09T01:48:31.479Z,10.25
2024-05-09T01:53:24.070Z,10.27
2024-05-09T01:58:16.581Z,10.21
2024-05-09T02:03:14.021Z,10.15
2024-05-09T02:08:15.234Z,10.05
2024-05-09T02:13:08.103Z,9.71
2024-05-09T02:18:01.127Z,9.88
2024-05-09T02:22:55.114Z,10.09
2024-05-09T02:27:47.827Z,9.73
2024-05-09T02:32:40.531Z,9.82
2024-05-09T02:37:33.116Z,9.51
2024-05-09T02:42:27.612Z,9.84
2024-05-09T02:47:20.279Z,9.79
2024-05-09T02:52:12.869Z,9.76
2024-05-09T02:57:05.437Z,9.77
2024-05-09T03:01:58.079Z,9.66
2024-05-09T03:06:50.633Z,9.57
2024-05-09T03:11:43.099Z,9.49
2024-05-09T03:16:39.200Z,9.41
2024-05-09T03:21:31.536Z,9.48
2024-05-09T03:26:23.944Z,9.21
2024-05-09T03:31:18.942Z,9.26
2024-05-09T03:36:11.586Z,9.31
2024-05-09T03:41:04.062Z,9.25
2024-05-09T03:45:56.825Z,9.23
2024-05-09T03:50:49.371Z,9.37
2024-05-09T03:55:41.951Z,9.21
2024-05-09T04:00:38.536Z,9.25
2024-05-09T04:05:32.978Z,9.30
2024-05-09T04:10:32.455Z,9.15
2024-05-09T04:15:27.581Z,9.19
2024-05-09T04:20:29.288Z,9.17
2024-05-09T04:25:29.881Z,8.89
2024-05-09T04:30:34.266Z,9.19
2024-05-09T04:35:31.271Z,8.92
2024-05-09T04:40:31.220Z,8.91
2024-05-09T04:45:27.341Z,9.02
2024-05-09T04:50:29.317Z,9.12
2024-05-09T04:55:28.498Z,9.29
2024-05-09T05:00:28.929Z,9.43
2024-05-09T05:05:28.129Z,9.25
2024-05-09T05:10:25.524Z,9.31
2024-05-09T05:15:22.589Z,9.57
2024-05-09T05:20:17.805Z,9.66
2024-05-09T05:25:13.784Z,9.66
2024-05-09T05:30:11.791Z,9.85
2024-05-09T05:35:07.311Z,9.89
2024-05-09T05:40:00.037Z,9.77
2024-05-09T05:44:52.535Z,10.10
2024-05-09T05:49:44.996Z,10.19
2024-05-09T05:54:37.630Z,10.25
2024-05-09T05:59:30.211Z,9.97
2024-05-09T06:04:22.767Z,10.33
2024-05-09T06:09:15.248Z,10.25
2024-05-09T06:14:07.932Z,10.40
2024-05-09T06:19:02.222Z,10.69
2024-05-09T06:23:54.843Z,10.63
2024-05-09T06:28:47.591Z,10.51
2024-05-09T06:33:43.556Z,10.83
2024-05-09T06:38:38.555Z,11.03
2024-05-09T06:43:31.186Z,11.16
2024-05-09T06:48:24.796Z,10.97
2024-05-09T06:53:18.075Z,11.25
2024-05-09T06:58:10.778Z,11.38
2024-05-09T07:03:08.303Z,11.34
2024-05-09T07:08:01.098Z,11.21
2024-05-09T07:12:53.636Z,11.36
2024-05-09T07:17:46.192Z,11.78
2024-05-09T07:22:38.796Z,11.56
2024-05-09T07:27:31.382Z,12.04
2024-05-09T07:32:24.809Z,12.16
2024-05-09T07:37:17.731Z,12.10
2024-05-09T07:42:10.689Z,12.62
2024-05-09T07:48:14.182Z,12.43
2024-05-09T07:53:29.908Z,13.00
2024-05-09T07:57:28.667Z,13.62
2024-05-09T08:02:21.614Z,14.39
2024-05-09T08:07:14.242Z,15.08
2024-05-09T08:12:09.570Z,16.13
2024-05-09T08:17:04.344Z,16.85
2024-05-09T08:21:57.010Z,17.37
2024-05-09T08:26:49.686Z,17.69
2024-05-09T08:31:43.430Z,18.60
2024-05-09T08:36:36.134Z,19.26
2024-05-09T08:41:29.642Z,19.89
2024-05-09T08:46:22.951Z,20.13
2024-05-09T08:51:16.441Z,20.08
2024-05-09T08:56:12.235Z,20.79
2024-05-09T09:01:05.466Z,21.17
2024-05-09T09:06:09.024Z,21.63
2024-05-09T09:11:19.672Z,22.02
2024-05-09T09:16:13.035Z,21.92
2024-05-09T09:21:05.745Z,21.88
2024-05-09T09:26:01.597Z,21.82
2024-05-09T09:30:54.411Z,21.73
2024-05-09T09:35:46.954Z,21.63
2024-05-09T09:40:49.715Z,21.73
2024-05-09T09:45:44.755Z,21.80
2024-05-09T09:50:38.151Z,21.93
2024-05-09T09:55:33.456Z,21.70
2024-05-09T10:00:32.968Z,21.36
2024-05-09T10:05:27.183Z,21.68
2024-05-09T10:10:31.416Z,21.62
2024-05-09T10:15:27.703Z,21.45
2024-05-09T10:20:28.146Z,20.85
2024-05-09T10:25:25.323Z,20.64
2024-05-09T10:35:27.362Z,20.78
2024-05-09T10:40:26.437Z,20.02
2024-05-09T10:45:24.735Z,20.24
2024-05-09T10:50:25.740Z,20.14
2024-05-09T10:55:21.664Z,19.99
2024-05-09T11:00:23.312Z,19.65
2024-05-09T11:05:27.235Z,19.78
2024-05-09T11:10:27.414Z,19.54
2024-05-09T11:15:27.629Z,19.32
2024-05-09T11:20:29.129Z,19.22
2024-05-09T11:25:37.029Z,19.43
2024-05-09T11:30:34.851Z,19.36
2024-05-09T11:35:29.653Z,19.23
2024-05-09T11:40:28.083Z,19.19
2024-05-09T11:45:25.825Z,19.27
2024-05-09T11:50:26.618Z,19.29
2024-05-09T11:55:27.213Z,19.36
2024-05-09T12:00:29.176Z,19.50
2024-05-09T12:05:29.123Z,19.77
2024-05-09T12:10:26.262Z,19.81
2024-05-09T12:15:24.648Z,20.00
2024-05-09T12:20:25.787Z,20.03
2024-05-09T12:25:26.081Z,20.01
2024-05-09T12:30:29.073Z,20.19
2024-05-09T12:35:29.488Z,20.32
2024-05-09T12:40:30.750Z,20.28
2024-05-09T12:45:27.373Z,20.12
2024-05-09T12:50:28.799Z,19.87
2024-05-09T12:55:24.445Z,19.80
2024-05-09T13:00:23.814Z,19.79
2024-05-09T13:05:20.802Z,19.72
2024-05-09T13:10:19.830Z,19.68
2024-05-09T13:15:15.733Z,19.55
2024-05-09T13:20:14.886Z,19.33
2024-05-09T13:25:13.330Z,19.46
2024-05-09T13:30:11.854Z,19.64
2024-05-09T13:35:07.496Z,19.57
2024-05-09T13:40:01.169Z,19.75
2024-05-09T13:44:54.444Z,19.78
2024-05-09T13:49:47.784Z,19.78
2024-05-09T13:54:40.206Z,19.66
2024-05-09T13:59:32.761Z,19.96
2024-05-09T14:04:25.445Z,20.06
2024-05-09T14:09:17.991Z,20.23
2024-05-09T14:14:10.391Z,20.53
2024-05-09T14:19:03.285Z,20.78
2024-05-09T14:23:55.717Z,20.79
2024-05-09T14:28:48.123Z,20.57
2024-05-09T14:33:40.681Z,20.61
2024-05-09T14:38:33.162Z,20.57
2024-05-09T14:43:25.948Z,20.62
2024-05-09T14:48:20.208Z,20.51
2024-05-09T14:53:14.004Z,20.33
2024-05-09T14:58:07.567Z,20.26
2024-05-09T15:03:00.700Z,19.98
2024-05-09T15:07:53.659Z,20.02
2024-05-09T15:12:46.294Z,19.95
2024-05-09T15:17:41.970Z,19.79
2024-05-09T15:22:34.450Z,19.68
2024-05-09T15:27:26.895Z,19.76
2024-05-09T15:32:19.458Z,19.63
2024-05-09T15:37:12.466Z,19.61
2024-05-09T15:42:05.165Z,19.43
2024-05-09T15:46:57.750Z,19.36
2024-05-09T15:51:50.436Z,19.42
2024-05-09T15:56:47.406Z,19.47
2024-05-09T16:01:40.148Z,19.28
2024-05-09T16:06:33.941Z,19.58
2024-05-09T16:11:27.711Z,19.62
2024-05-09T16:16:20.289Z,19.53
2024-05-09T16:21:12.786Z,19.57
2024-05-09T16:26:06.407Z,19.62
2024-05-09T16:31:01.455Z,19.60
2024-05-09T16:35:54.036Z,19.51
2024-05-09T16:40:46.604Z,19.29
2024-05-09T16:45:40.960Z,19.31
2024-05-09T16:50:35.353Z,19.47
2024-05-09T16:55:28.563Z,19.22
2024-05-09T17:00:31.248Z,19.48
2024-05-09T17:05:32.100Z,19.44
2024-05-09T17:10:31.328Z,19.35
2024-05-09T17:15:25.837Z,19.20
2024-05-09T17:20:28.917Z,19.27
2024-05-09T17:25:25.890Z,19.21
2024-05-09T17:30:28.301Z,19.10
2024-05-09T17:35:25.060Z,19.01
2024-05-09T17:40:26.942Z,18.84
2024-05-09T17:45:23.617Z,18.65
2024-05-09T17:50:23.764Z,18.57
2024-05-09T17:55:20.250Z,18.49
2024-05-09T18:00:17.337Z,18.39
2024-05-09T18:05:12.318Z,18.46
2024-05-09T18:10:10.145Z,18.40
2024-05-09T18:15:08.283Z,18.47
2024-05-09T18:20:00.751Z,18.40
2024-05-09T18:24:53.347Z,18.38
2024-05-09T18:29:45.850Z,18.29
2024-05-09T18:34:38.364Z,18.28
2024-05-09T18:39:30.988Z,18.30
2024-05-09T18:44:23.540Z,18.19
2024-05-09T18:49:16.294Z,18.01
2024-05-09T18:54:08.958Z,18.08
2024-05-09T18:59:01.482Z,18.13
2024-05-09T19:03:54.073Z,17.85
2024-05-09T19:08:46.529Z,17.78
2024-05-09T19:13:38.899Z,17.76
2024-05-09T19:18:31.638Z,17.77
2024-05-09T19:23:24.203Z,17.60
2024-05-09T19:28:16.686Z,17.53
2024-05-09T19:33:11.886Z,17.47
2024-05-09T19:38:05.755Z,17.37
2024-05-09T19:42:58.236Z,17.25
2024-05-09T19:47:51.229Z,17.24
2024-05-09T19:52:43.894Z,17.04
2024-05-09T19:57:36.247Z,17.08
2024-05-09T20:02:31.410Z,16.91
2024-05-09T20:07:23.977Z,16.96
2024-05-09T20:12:16.553Z,16.70
2024-05-09T20:17:08.913Z,16.43
2024-05-09T20:22:01.611Z,16.43
2024-05-09T20:26:54.065Z,16.29
2024-05-09T20:31:46.617Z,16.28
2024-05-09T20:36:39.175Z,15.91
2024-05-09T20:41:33.596Z,15.68
2024-05-09T20:46:26.510Z,15.96
2024-05-09T20:51:18.978Z,15.76
2024-05-09T20:56:11.430Z,15.73
2024-05-09T21:01:03.981Z,15.59
2024-05-09T21:05:56.609Z,15.55
2024-05-09T21:10:49.448Z,15.30
2024-05-09T21:15:42.002Z,15.37
2024-05-09T21:20:35.178Z,15.41
2024-05-09T21:25:28.010Z,15.40
2024-05-09T21:30:31.564Z,15.30
2024-05-09T21:35:32.709Z,15.14
2024-05-09T21:40:31.632Z,15.09
2024-05-09T21:45:27.426Z,15.24
2024-05-09T21:50:27.505Z,15.31
2024-05-09T21:55:24.531Z,15.36
2024-05-09T22:00:28.557Z,15.27
2024-05-09T22:05:27.880Z,15.15
2024-05-09T22:10:26.465Z,14.64
2024-05-09T22:15:24.657Z,15.05
2024-05-09T22:20:25.063Z,14.74
2024-05-09T22:25:21.804Z,15.07
2024-05-09T22:30:21.268Z,14.93
2024-05-09T22:35:19.741Z,14.91
2024-05-09T22:40:20.694Z,14.90
2024-05-09T22:45:21.080Z,14.82
2024-05-09T22:50:18.603Z,14.75
2024-05-09T22:55:21.435Z,14.73
2024-05-09T23:00:16.061Z,14.74
2024-05-09T23:05:09.026Z,14.61
2024-05-09T23:10:01.792Z,14.47
2024-05-09T23:14:54.407Z,14.64
2024-05-09T23:19:46.832Z,14.54
2024-05-09T23:24:39.760Z,14.48
2024-05-09T23:29:32.327Z,14.49
2024-05-09T23:34:24.903Z,14.36
2024-05-09T23:39:19.120Z,14.02
2024-05-09T23:44:11.652Z,14.13
2024-05-09T23:49:04.235Z,14.12
2024-05-09T23:53:56.790Z,13.99
2024-05-09T23:58:49.377Z,14.03
